Vallican, Canada
Current Conditions -  °F | °C
As of 8:05 PM on Tuesday 21 Oct 2014 (Local Time) from CYCG Reporting Station
Light Rain Light Rain  
Wind Chill: 54°   Ceiling: 7000
Heat Index: 54°   Visibility: 15mi
Dew Point: 45°   Wind: 8mph
Humidity: 72%   Direction: 200°SSW
Pressure: 29.93"   Gusts: NA
Location:  49.57°N, 117.65°W
Report Text: CYCG 220305Z 20007KT 150V220 15SM -RA SCT040 BKN070 12/07 A2993 RMK SC4AC3 SLP140
Loading
Personal Weather Stations






























Interactive Weather Map
Tropical Storm Tracking
New forecast layout! Learn more

10-Day Weather Forecast

Advertisements
Track Severe Weather on mobile